sensor_id;sensor_type;location;lat;lon;timestamp;temperature;humidity
212;DHT22;16228;48.800;9.002;2022-12-28T00:01:25;1.20;96.90
212;DHT22;16228;48.800;9.002;2022-12-28T00:03:53;1.10;96.90
212;DHT22;16228;48.800;9.002;2022-12-28T00:06:22;1.20;96.90
212;DHT22;16228;48.800;9.002;2022-12-28T00:08:51;1.10;96.90
212;DHT22;16228;48.800;9.002;2022-12-28T00:11:21;1.20;96.90
212;DHT22;16228;48.800;9.002;2022-12-28T00:13:50;1.20;96.90
212;DHT22;16228;48.800;9.002;2022-12-28T00:16:22;1.20;96.90
212;DHT22;16228;48.800;9.002;2022-12-28T00:18:50;1.30;96.90
212;DHT22;16228;48.800;9.002;2022-12-28T00:21:17;1.40;96.90
212;DHT22;16228;48.800;9.002;2022-12-28T00:23:48;1.60;96.90
212;DHT22;16228;48.800;9.002;2022-12-28T00:26:15;1.60;96.90
212;DHT22;16228;48.800;9.002;2022-12-28T00:28:42;1.70;96.90
212;DHT22;16228;48.800;9.002;2022-12-28T00:31:11;1.70;96.90
212;DHT22;16228;48.800;9.002;2022-12-28T00:33:38;1.70;96.90
212;DHT22;16228;48.800;9.002;2022-12-28T00:36:06;1.70;96.90
212;DHT22;16228;48.800;9.002;2022-12-28T00:38:34;1.70;96.90
212;DHT22;16228;48.800;9.002;2022-12-28T00:41:03;1.80;96.90
212;DHT22;16228;48.800;9.002;2022-12-28T00:43:30;1.80;96.90
212;DHT22;16228;48.800;9.002;2022-12-28T00:45:58;1.90;96.90
212;DHT22;16228;48.800;9.002;2022-12-28T00:48:26;2.00;96.90
212;DHT22;16228;48.800;9.002;2022-12-28T00:51:00;2.00;96.90
212;DHT22;16228;48.800;9.002;2022-12-28T00:53:28;2.20;96.90
212;DHT22;16228;48.800;9.002;2022-12-28T00:56:03;2.30;96.90
212;DHT22;16228;48.800;9.002;2022-12-28T00:58:31;2.30;96.90
212;DHT22;16228;48.800;9.002;2022-12-28T01:00:58;2.40;96.90
212;DHT22;16228;48.800;9.002;2022-12-28T01:03:27;2.50;96.90
212;DHT22;16228;48.800;9.002;2022-12-28T01:05:54;2.60;96.90
212;DHT22;16228;48.800;9.002;2022-12-28T01:08:21;2.60;96.90
212;DHT22;16228;48.800;9.002;2022-12-28T01:10:49;2.60;96.90
212;DHT22;16228;48.800;9.002;2022-12-28T01:13:16;2.70;96.90
212;DHT22;16228;48.800;9.002;2022-12-28T01:15:43;2.80;96.90
212;DHT22;16228;48.800;9.002;2022-12-28T01:18:10;2.90;96.90
212;DHT22;16228;48.800;9.002;2022-12-28T01:20:39;2.90;96.90
212;DHT22;16228;48.800;9.002;2022-12-28T01:23:06;2.90;96.90
212;DHT22;16228;48.800;9.002;2022-12-28T01:25:34;3.00;96.90
212;DHT22;16228;48.800;9.002;2022-12-28T01:28:01;3.10;96.90
212;DHT22;16228;48.800;9.002;2022-12-28T01:30:28;3.10;96.90
212;DHT22;16228;48.800;9.002;2022-12-28T01:32:58;3.10;96.90
212;DHT22;16228;48.800;9.002;2022-12-28T01:35:26;3.20;96.90
212;DHT22;16228;48.800;9.002;2022-12-28T01:37:56;3.20;96.90
212;DHT22;16228;48.800;9.002;2022-12-28T01:40:24;3.20;96.90
212;DHT22;16228;48.800;9.002;2022-12-28T01:42:51;3.20;96.90
212;DHT22;16228;48.800;9.002;2022-12-28T01:45:20;3.30;96.90
212;DHT22;16228;48.800;9.002;2022-12-28T01:47:49;3.30;96.90
212;DHT22;16228;48.800;9.002;2022-12-28T01:50:21;3.20;96.90
212;DHT22;16228;48.800;9.002;2022-12-28T01:52:52;3.20;96.90
212;DHT22;16228;48.800;9.002;2022-12-28T01:55:25;3.30;96.90
212;DHT22;16228;48.800;9.002;2022-12-28T01:57:56;3.30;96.90
212;DHT22;16228;48.800;9.002;2022-12-28T02:00:24;3.40;96.90
212;DHT22;16228;48.800;9.002;2022-12-28T02:02:55;3.40;96.90
212;DHT22;16228;48.800;9.002;2022-12-28T02:05:26;3.60;96.90
212;DHT22;16228;48.800;9.002;2022-12-28T02:07:57;3.60;96.90
212;DHT22;16228;48.800;9.002;2022-12-28T02:10:29;3.70;96.90
212;DHT22;16228;48.800;9.002;2022-12-28T02:12:58;3.80;96.90
212;DHT22;16228;48.800;9.002;2022-12-28T02:15:26;3.90;96.90
212;DHT22;16228;48.800;9.002;2022-12-28T02:17:53;3.90;96.90
212;DHT22;16228;48.800;9.002;2022-12-28T02:20:21;4.00;96.90
212;DHT22;16228;48.800;9.002;2022-12-28T02:23:19;4.00;96.90
212;DHT22;16228;48.800;9.002;2022-12-28T02:26:07;4.10;96.90
212;DHT22;16228;48.800;9.002;2022-12-28T02:31:41;4.10;96.90
212;DHT22;16228;48.800;9.002;2022-12-28T02:34:13;4.10;96.90
212;DHT22;16228;48.800;9.002;2022-12-28T02:36:46;4.10;96.90
212;DHT22;16228;48.800;9.002;2022-12-28T02:39:20;4.10;96.90
212;DHT22;16228;48.800;9.002;2022-12-28T02:41:49;4.10;96.90
212;DHT22;16228;48.800;9.002;2022-12-28T02:44:18;4.10;96.90
212;DHT22;16228;48.800;9.002;2022-12-28T02:47:00;4.10;96.90
212;DHT22;16228;48.800;9.002;2022-12-28T02:49:44;4.20;96.90
212;DHT22;16228;48.800;9.002;2022-12-28T02:52:40;4.20;96.90
212;DHT22;16228;48.800;9.002;2022-12-28T02:55:21;4.30;96.90
212;DHT22;16228;48.800;9.002;2022-12-28T02:58:23;4.30;96.90
212;DHT22;16228;48.800;9.002;2022-12-28T03:01:11;4.30;96.90
212;DHT22;16228;48.800;9.002;2022-12-28T03:03:48;4.30;96.90
212;DHT22;16228;48.800;9.002;2022-12-28T03:06:27;4.30;96.90
212;DHT22;16228;48.800;9.002;2022-12-28T03:09:33;4.30;96.90
212;DHT22;16228;48.800;9.002;2022-12-28T03:12:07;4.30;96.90
212;DHT22;16228;48.800;9.002;2022-12-28T03:14:38;4.40;96.90
212;DHT22;16228;48.800;9.002;2022-12-28T03:17:10;4.40;96.90
212;DHT22;16228;48.800;9.002;2022-12-28T03:19:57;4.40;96.90
212;DHT22;16228;48.800;9.002;2022-12-28T03:22:44;4.40;96.90
212;DHT22;16228;48.800;9.002;2022-12-28T03:25:33;4.40;96.90
212;DHT22;16228;48.800;9.002;2022-12-28T03:28:22;4.40;96.90
212;DHT22;16228;48.800;9.002;2022-12-28T03:31:11;4.50;96.90
212;DHT22;16228;48.800;9.002;2022-12-28T03:33:42;4.50;96.90
212;DHT22;16228;48.800;9.002;2022-12-28T03:36:17;4.50;96.90
212;DHT22;16228;48.800;9.002;2022-12-28T03:38:52;4.50;96.90
212;DHT22;16228;48.800;9.002;2022-12-28T03:41:27;4.50;96.90
212;DHT22;16228;48.800;9.002;2022-12-28T03:43:59;4.60;96.90
212;DHT22;16228;48.800;9.002;2022-12-28T03:46:33;4.60;96.90
212;DHT22;16228;48.800;9.002;2022-12-28T03:49:03;4.60;96.90
212;DHT22;16228;48.800;9.002;2022-12-28T03:51:31;4.60;96.90
212;DHT22;16228;48.800;9.002;2022-12-28T03:54:00;4.70;96.90
212;DHT22;16228;48.800;9.002;2022-12-28T03:56:27;4.70;96.90
212;DHT22;16228;48.800;9.002;2022-12-28T03:58:55;4.70;96.90
212;DHT22;16228;48.800;9.002;2022-12-28T04:01:22;4.70;96.90
212;DHT22;16228;48.800;9.002;2022-12-28T04:03:50;4.70;96.90
212;DHT22;16228;48.800;9.002;2022-12-28T04:06:19;4.70;96.90
212;DHT22;16228;48.800;9.002;2022-12-28T04:08:47;4.70;96.90
212;DHT22;16228;48.800;9.002;2022-12-28T04:11:14;4.70;96.90
212;DHT22;16228;48.800;9.002;2022-12-28T04:13:41;4.80;96.90
212;DHT22;16228;48.800;9.002;2022-12-28T04:16:11;4.80;96.90
212;DHT22;16228;48.800;9.002;2022-12-28T04:18:38;4.80;96.90
212;DHT22;16228;48.800;9.002;2022-12-28T04:21:06;4.80;96.90
212;DHT22;16228;48.800;9.002;2022-12-28T04:23:35;4.80;96.90
212;DHT22;16228;48.800;9.002;2022-12-28T04:26:04;4.80;96.90
212;DHT22;16228;48.800;9.002;2022-12-28T04:28:33;4.90;96.90
212;DHT22;16228;48.800;9.002;2022-12-28T04:31:01;4.80;96.90
212;DHT22;16228;48.800;9.002;2022-12-28T04:33:31;4.90;96.90
212;DHT22;16228;48.800;9.002;2022-12-28T04:36:04;4.90;96.90
212;DHT22;16228;48.800;9.002;2022-12-28T04:38:31;4.90;96.90
212;DHT22;16228;48.800;9.002;2022-12-28T04:41:00;4.90;96.90
212;DHT22;16228;48.800;9.002;2022-12-28T04:43:27;4.90;96.90
212;DHT22;16228;48.800;9.002;2022-12-28T04:45:56;4.90;96.90
212;DHT22;16228;48.800;9.002;2022-12-28T04:48:24;4.90;96.90
212;DHT22;16228;48.800;9.002;2022-12-28T04:50:52;5.00;96.90
212;DHT22;16228;48.800;9.002;2022-12-28T04:53:19;4.90;96.90
212;DHT22;16228;48.800;9.002;2022-12-28T04:55:47;4.90;96.90
212;DHT22;16228;48.800;9.002;2022-12-28T04:58:15;4.90;96.90
212;DHT22;16228;48.800;9.002;2022-12-28T05:00:43;5.00;96.90
212;DHT22;16228;48.800;9.002;2022-12-28T05:03:10;5.10;96.90
212;DHT22;16228;48.800;9.002;2022-12-28T05:05:37;5.10;96.90
212;DHT22;16228;48.800;9.002;2022-12-28T05:08:04;5.10;96.90
212;DHT22;16228;48.800;9.002;2022-12-28T05:10:32;5.20;96.90
212;DHT22;16228;48.800;9.002;2022-12-28T05:12:59;5.20;96.90
212;DHT22;16228;48.800;9.002;2022-12-28T05:15:27;5.20;96.90
212;DHT22;16228;48.800;9.002;2022-12-28T05:17:54;5.20;96.90
212;DHT22;16228;48.800;9.002;2022-12-28T05:20:21;5.20;96.90
212;DHT22;16228;48.800;9.002;2022-12-28T05:22:49;5.20;96.90
212;DHT22;16228;48.800;9.002;2022-12-28T05:25:16;5.20;96.90
212;DHT22;16228;48.800;9.002;2022-12-28T05:27:43;5.20;96.90
212;DHT22;16228;48.800;9.002;2022-12-28T05:30:11;5.20;96.90
212;DHT22;16228;48.800;9.002;2022-12-28T05:32:39;5.20;96.90
212;DHT22;16228;48.800;9.002;2022-12-28T05:35:08;5.20;96.90
212;DHT22;16228;48.800;9.002;2022-12-28T05:37:36;5.20;96.90
212;DHT22;16228;48.800;9.002;2022-12-28T05:40:04;5.20;96.90
212;DHT22;16228;48.800;9.002;2022-12-28T05:42:33;5.10;96.90
212;DHT22;16228;48.800;9.002;2022-12-28T05:45:00;5.10;96.90
212;DHT22;16228;48.800;9.002;2022-12-28T05:47:28;5.10;96.90
212;DHT22;16228;48.800;9.002;2022-12-28T05:49:57;5.00;96.90
212;DHT22;16228;48.800;9.002;2022-12-28T05:52:24;5.00;96.90
212;DHT22;16228;48.800;9.002;2022-12-28T05:54:51;5.00;96.90
212;DHT22;16228;48.800;9.002;2022-12-28T05:57:18;5.00;96.90
212;DHT22;16228;48.800;9.002;2022-12-28T05:59:46;5.00;96.90
212;DHT22;16228;48.800;9.002;2022-12-28T06:02:13;5.00;96.90
212;DHT22;16228;48.800;9.002;2022-12-28T06:04:40;5.10;96.90
212;DHT22;16228;48.800;9.002;2022-12-28T06:07:08;5.20;96.90
212;DHT22;16228;48.800;9.002;2022-12-28T06:09:35;5.20;96.90
212;DHT22;16228;48.800;9.002;2022-12-28T06:12:03;5.20;96.90
212;DHT22;16228;48.800;9.002;2022-12-28T06:14:31;5.20;96.90
212;DHT22;16228;48.800;9.002;2022-12-28T06:16:58;5.20;96.90
212;DHT22;16228;48.800;9.002;2022-12-28T06:19:25;5.20;96.90
212;DHT22;16228;48.800;9.002;2022-12-28T06:21:53;5.20;96.90
212;DHT22;16228;48.800;9.002;2022-12-28T06:24:21;5.30;96.90
212;DHT22;16228;48.800;9.002;2022-12-28T06:26:48;5.30;96.90
212;DHT22;16228;48.800;9.002;2022-12-28T06:29:16;5.30;96.90
212;DHT22;16228;48.800;9.002;2022-12-28T06:31:44;5.30;96.90
212;DHT22;16228;48.800;9.002;2022-12-28T06:34:13;5.30;96.90
212;DHT22;16228;48.800;9.002;2022-12-28T06:36:42;5.30;96.90
212;DHT22;16228;48.800;9.002;2022-12-28T06:39:12;5.40;96.90
212;DHT22;16228;48.800;9.002;2022-12-28T06:41:41;5.40;96.90
212;DHT22;16228;48.800;9.002;2022-12-28T06:44:09;5.40;96.90
212;DHT22;16228;48.800;9.002;2022-12-28T06:46:37;5.40;96.90
212;DHT22;16228;48.800;9.002;2022-12-28T06:49:04;5.40;96.90
212;DHT22;16228;48.800;9.002;2022-12-28T06:51:34;5.40;96.90
212;DHT22;16228;48.800;9.002;2022-12-28T06:54:04;5.50;96.90
212;DHT22;16228;48.800;9.002;2022-12-28T06:56:32;5.50;96.90
212;DHT22;16228;48.800;9.002;2022-12-28T06:59:02;5.50;96.90
212;DHT22;16228;48.800;9.002;2022-12-28T07:01:31;5.50;96.90
212;DHT22;16228;48.800;9.002;2022-12-28T07:03:59;5.50;96.90
212;DHT22;16228;48.800;9.002;2022-12-28T07:06:28;5.50;96.90
212;DHT22;16228;48.800;9.002;2022-12-28T07:08:59;5.50;96.90
212;DHT22;16228;48.800;9.002;2022-12-28T07:11:27;5.50;96.90
212;DHT22;16228;48.800;9.002;2022-12-28T07:13:54;5.50;96.90
212;DHT22;16228;48.800;9.002;2022-12-28T07:16:24;5.50;96.90
212;DHT22;16228;48.800;9.002;2022-12-28T07:18:51;5.50;96.90
212;DHT22;16228;48.800;9.002;2022-12-28T07:21:22;5.50;96.90
212;DHT22;16228;48.800;9.002;2022-12-28T07:23:50;5.50;96.90
212;DHT22;16228;48.800;9.002;2022-12-28T07:26:19;5.50;96.90
212;DHT22;16228;48.800;9.002;2022-12-28T07:28:48;5.50;96.90
212;DHT22;16228;48.800;9.002;2022-12-28T07:31:17;5.50;96.90
212;DHT22;16228;48.800;9.002;2022-12-28T07:33:46;5.50;96.90
212;DHT22;16228;48.800;9.002;2022-12-28T07:36:16;5.50;96.90
212;DHT22;16228;48.800;9.002;2022-12-28T07:38:43;5.50;96.90
212;DHT22;16228;48.800;9.002;2022-12-28T07:41:12;5.50;96.90
212;DHT22;16228;48.800;9.002;2022-12-28T07:43:40;5.60;96.90
212;DHT22;16228;48.800;9.002;2022-12-28T07:46:10;5.60;96.90
212;DHT22;16228;48.800;9.002;2022-12-28T07:48:38;5.50;96.90
212;DHT22;16228;48.800;9.002;2022-12-28T07:51:09;5.50;96.90
212;DHT22;16228;48.800;9.002;2022-12-28T07:53:36;5.50;96.90
212;DHT22;16228;48.800;9.002;2022-12-28T07:56:04;5.60;96.90
212;DHT22;16228;48.800;9.002;2022-12-28T07:58:32;5.60;96.90
212;DHT22;16228;48.800;9.002;2022-12-28T08:01:04;5.60;96.90
212;DHT22;16228;48.800;9.002;2022-12-28T08:03:31;5.60;96.90
212;DHT22;16228;48.800;9.002;2022-12-28T08:06:04;5.60;96.90
212;DHT22;16228;48.800;9.002;2022-12-28T08:08:35;5.60;96.90
212;DHT22;16228;48.800;9.002;2022-12-28T08:11:03;5.60;96.90
212;DHT22;16228;48.800;9.002;2022-12-28T08:13:31;5.70;96.90
212;DHT22;16228;48.800;9.002;2022-12-28T08:15:59;5.70;96.90
212;DHT22;16228;48.800;9.002;2022-12-28T08:18:27;5.80;96.90
212;DHT22;16228;48.800;9.002;2022-12-28T08:20:59;5.80;96.90
212;DHT22;16228;48.800;9.002;2022-12-28T08:23:27;5.90;96.90
212;DHT22;16228;48.800;9.002;2022-12-28T08:25:55;6.00;96.90
212;DHT22;16228;48.800;9.002;2022-12-28T08:28:23;6.10;96.90
212;DHT22;16228;48.800;9.002;2022-12-28T08:30:50;6.10;96.90
212;DHT22;16228;48.800;9.002;2022-12-28T08:33:17;6.20;96.90
212;DHT22;16228;48.800;9.002;2022-12-28T08:35:44;6.20;96.90
212;DHT22;16228;48.800;9.002;2022-12-28T08:38:11;6.30;96.90
212;DHT22;16228;48.800;9.002;2022-12-28T08:40:38;6.30;96.90
212;DHT22;16228;48.800;9.002;2022-12-28T08:43:07;6.40;96.90
212;DHT22;16228;48.800;9.002;2022-12-28T08:45:34;6.40;96.90
212;DHT22;16228;48.800;9.002;2022-12-28T08:48:01;6.40;96.90
212;DHT22;16228;48.800;9.002;2022-12-28T08:50:28;6.50;96.90
212;DHT22;16228;48.800;9.002;2022-12-28T08:52:56;6.60;96.90
212;DHT22;16228;48.800;9.002;2022-12-28T08:55:23;6.70;96.90
212;DHT22;16228;48.800;9.002;2022-12-28T08:57:50;6.70;96.90
212;DHT22;16228;48.800;9.002;2022-12-28T09:00:19;6.90;96.90
212;DHT22;16228;48.800;9.002;2022-12-28T09:02:46;7.00;96.90
212;DHT22;16228;48.800;9.002;2022-12-28T09:05:13;7.10;96.90
212;DHT22;16228;48.800;9.002;2022-12-28T09:07:40;7.10;96.90
212;DHT22;16228;48.800;9.002;2022-12-28T09:10:08;7.20;96.90
212;DHT22;16228;48.800;9.002;2022-12-28T09:12:35;7.20;96.90
212;DHT22;16228;48.800;9.002;2022-12-28T09:15:02;7.40;96.90
212;DHT22;16228;48.800;9.002;2022-12-28T09:17:31;7.40;96.90
212;DHT22;16228;48.800;9.002;2022-12-28T09:19:58;7.50;96.90
212;DHT22;16228;48.800;9.002;2022-12-28T09:22:26;7.50;96.90
212;DHT22;16228;48.800;9.002;2022-12-28T09:24:53;7.50;96.90
212;DHT22;16228;48.800;9.002;2022-12-28T09:27:20;7.50;96.90
212;DHT22;16228;48.800;9.002;2022-12-28T09:29:47;7.60;96.90
212;DHT22;16228;48.800;9.002;2022-12-28T09:32:14;7.60;96.90
212;DHT22;16228;48.800;9.002;2022-12-28T09:34:42;7.70;96.90
212;DHT22;16228;48.800;9.002;2022-12-28T09:37:10;7.80;96.90
212;DHT22;16228;48.800;9.002;2022-12-28T09:39:37;7.90;96.90
212;DHT22;16228;48.800;9.002;2022-12-28T09:42:10;7.90;96.90
212;DHT22;16228;48.800;9.002;2022-12-28T09:44:48;8.00;96.90
212;DHT22;16228;48.800;9.002;2022-12-28T09:47:31;8.00;96.90
212;DHT22;16228;48.800;9.002;2022-12-28T09:52:55;8.20;96.90
212;DHT22;16228;48.800;9.002;2022-12-28T09:55:24;8.30;96.90
212;DHT22;16228;48.800;9.002;2022-12-28T09:57:55;8.30;96.90
212;DHT22;16228;48.800;9.002;2022-12-28T10:00:24;8.30;96.90
212;DHT22;16228;48.800;9.002;2022-12-28T10:02:55;8.30;96.90
212;DHT22;16228;48.800;9.002;2022-12-28T10:05:24;8.50;96.90
212;DHT22;16228;48.800;9.002;2022-12-28T10:07:53;8.60;96.90
212;DHT22;16228;48.800;9.002;2022-12-28T10:10:22;8.80;96.90
212;DHT22;16228;48.800;9.002;2022-12-28T10:12:50;8.90;96.90
212;DHT22;16228;48.800;9.002;2022-12-28T10:15:17;9.00;96.90
212;DHT22;16228;48.800;9.002;2022-12-28T10:17:45;8.90;96.90
212;DHT22;16228;48.800;9.002;2022-12-28T10:20:17;8.90;96.90
212;DHT22;16228;48.800;9.002;2022-12-28T10:22:49;9.20;96.90
212;DHT22;16228;48.800;9.002;2022-12-28T10:25:18;9.60;96.90
212;DHT22;16228;48.800;9.002;2022-12-28T10:27:46;9.90;96.90
212;DHT22;16228;48.800;9.002;2022-12-28T10:30:16;10.10;96.90
212;DHT22;16228;48.800;9.002;2022-12-28T10:32:51;10.80;96.90
212;DHT22;16228;48.800;9.002;2022-12-28T10:35:24;11.70;96.90
212;DHT22;16228;48.800;9.002;2022-12-28T10:37:58;12.50;96.90
212;DHT22;16228;48.800;9.002;2022-12-28T10:40:28;13.20;96.60
212;DHT22;16228;48.800;9.002;2022-12-28T10:42:57;13.80;96.00
212;DHT22;16228;48.800;9.002;2022-12-28T10:45:34;13.80;94.60
212;DHT22;16228;48.800;9.002;2022-12-28T10:48:07;13.60;94.20
212;DHT22;16228;48.800;9.002;2022-12-28T10:50:38;12.90;96.40
212;DHT22;16228;48.800;9.002;2022-12-28T10:53:15;12.60;96.90
212;DHT22;16228;48.800;9.002;2022-12-28T10:55:43;11.80;96.90
212;DHT22;16228;48.800;9.002;2022-12-28T10:58:16;11.60;96.90
212;DHT22;16228;48.800;9.002;2022-12-28T11:00:52;11.00;96.90
212;DHT22;16228;48.800;9.002;2022-12-28T11:03:23;10.70;96.90
212;DHT22;16228;48.800;9.002;2022-12-28T11:06:10;10.40;96.90
212;DHT22;16228;48.800;9.002;2022-12-28T11:08:40;10.10;96.90
212;DHT22;16228;48.800;9.002;2022-12-28T11:11:16;9.90;96.90
212;DHT22;16228;48.800;9.002;2022-12-28T11:13:45;9.70;96.90
212;DHT22;16228;48.800;9.002;2022-12-28T11:16:13;9.30;96.90
212;DHT22;16228;48.800;9.002;2022-12-28T11:18:41;9.30;96.90
212;DHT22;16228;48.800;9.002;2022-12-28T11:21:09;9.40;96.90
212;DHT22;16228;48.800;9.002;2022-12-28T11:23:39;9.20;96.90
212;DHT22;16228;48.800;9.002;2022-12-28T11:26:10;9.20;96.90
212;DHT22;16228;48.800;9.002;2022-12-28T11:28:40;9.10;96.90
212;DHT22;16228;48.800;9.002;2022-12-28T11:31:09;9.30;96.90
212;DHT22;16228;48.800;9.002;2022-12-28T11:33:41;9.50;96.90
212;DHT22;16228;48.800;9.002;2022-12-28T11:36:14;9.70;96.90
212;DHT22;16228;48.800;9.002;2022-12-28T11:38:44;9.70;96.90
212;DHT22;16228;48.800;9.002;2022-12-28T11:41:39;9.70;96.90
212;DHT22;16228;48.800;9.002;2022-12-28T11:44:01;9.80;96.90
212;DHT22;16228;48.800;9.002;2022-12-28T11:46:40;9.80;96.90
212;DHT22;16228;48.800;9.002;2022-12-28T11:49:27;9.70;96.90
212;DHT22;16228;48.800;9.002;2022-12-28T11:55:36;10.00;96.90
212;DHT22;16228;48.800;9.002;2022-12-28T12:01:40;10.90;96.90
212;DHT22;16228;48.800;9.002;2022-12-28T12:07:24;10.70;96.90
212;DHT22;16228;48.800;9.002;2022-12-28T12:13:40;10.50;96.90
212;DHT22;16228;48.800;9.002;2022-12-28T12:16:20;10.40;96.90
212;DHT22;16228;48.800;9.002;2022-12-28T12:18:50;10.20;96.90
212;DHT22;16228;48.800;9.002;2022-12-28T12:21:30;10.10;96.90
212;DHT22;16228;48.800;9.002;2022-12-28T12:24:02;10.60;96.90
212;DHT22;16228;48.800;9.002;2022-12-28T12:26:37;10.70;96.90
212;DHT22;16228;48.800;9.002;2022-12-28T12:29:13;10.90;96.90
212;DHT22;16228;48.800;9.002;2022-12-28T12:31:45;11.00;96.90
212;DHT22;16228;48.800;9.002;2022-12-28T12:34:18;11.00;96.90
212;DHT22;16228;48.800;9.002;2022-12-28T12:37:17;11.00;96.90
212;DHT22;16228;48.800;9.002;2022-12-28T12:42:54;11.00;96.90
212;DHT22;16228;48.800;9.002;2022-12-28T12:45:31;10.90;96.90
212;DHT22;16228;48.800;9.002;2022-12-28T12:48:28;11.00;96.90
212;DHT22;16228;48.800;9.002;2022-12-28T12:51:05;11.00;96.90
212;DHT22;16228;48.800;9.002;2022-12-28T12:56:30;11.00;96.90
212;DHT22;16228;48.800;9.002;2022-12-28T12:59:21;10.80;96.90
212;DHT22;16228;48.800;9.002;2022-12-28T13:02:02;10.50;96.90
212;DHT22;16228;48.800;9.002;2022-12-28T13:04:34;10.30;96.90
212;DHT22;16228;48.800;9.002;2022-12-28T13:07:03;10.20;96.90
212;DHT22;16228;48.800;9.002;2022-12-28T13:09:33;10.00;96.90
212;DHT22;16228;48.800;9.002;2022-12-28T13:12:01;9.90;96.90
212;DHT22;16228;48.800;9.002;2022-12-28T13:14:29;9.80;96.90
212;DHT22;16228;48.800;9.002;2022-12-28T13:16:58;9.80;96.90
212;DHT22;16228;48.800;9.002;2022-12-28T13:19:27;9.70;96.90
212;DHT22;16228;48.800;9.002;2022-12-28T13:21:55;9.60;96.90
212;DHT22;16228;48.800;9.002;2022-12-28T13:24:25;9.50;96.90
212;DHT22;16228;48.800;9.002;2022-12-28T13:26:54;9.50;96.90
212;DHT22;16228;48.800;9.002;2022-12-28T13:29:23;9.50;96.90
212;DHT22;16228;48.800;9.002;2022-12-28T13:31:51;9.50;96.90
212;DHT22;16228;48.800;9.002;2022-12-28T13:34:22;9.40;96.90
212;DHT22;16228;48.800;9.002;2022-12-28T13:36:51;9.40;96.90
212;DHT22;16228;48.800;9.002;2022-12-28T13:39:22;9.40;96.90
212;DHT22;16228;48.800;9.002;2022-12-28T13:41:51;9.40;96.90
212;DHT22;16228;48.800;9.002;2022-12-28T13:44:29;9.40;96.90
212;DHT22;16228;48.800;9.002;2022-12-28T13:47:02;9.40;96.90
212;DHT22;16228;48.800;9.002;2022-12-28T13:49:35;9.40;96.90
212;DHT22;16228;48.800;9.002;2022-12-28T13:52:13;9.30;96.90
212;DHT22;16228;48.800;9.002;2022-12-28T13:54:46;9.30;96.90
212;DHT22;16228;48.800;9.002;2022-12-28T13:57:16;9.30;96.90
212;DHT22;16228;48.800;9.002;2022-12-28T13:59:45;9.30;96.90
212;DHT22;16228;48.800;9.002;2022-12-28T14:02:15;9.20;96.90
212;DHT22;16228;48.800;9.002;2022-12-28T14:04:46;9.20;96.90
212;DHT22;16228;48.800;9.002;2022-12-28T14:07:15;9.30;96.90
212;DHT22;16228;48.800;9.002;2022-12-28T14:09:43;9.30;96.90
212;DHT22;16228;48.800;9.002;2022-12-28T14:12:12;9.30;96.90
212;DHT22;16228;48.800;9.002;2022-12-28T14:14:39;9.30;96.90
212;DHT22;16228;48.800;9.002;2022-12-28T14:17:08;9.30;96.90
212;DHT22;16228;48.800;9.002;2022-12-28T14:19:36;9.30;96.90
212;DHT22;16228;48.800;9.002;2022-12-28T14:22:24;9.30;96.90
212;DHT22;16228;48.800;9.002;2022-12-28T14:25:03;9.30;96.90
212;DHT22;16228;48.800;9.002;2022-12-28T14:27:32;9.30;96.90
212;DHT22;16228;48.800;9.002;2022-12-28T14:29:59;9.30;96.90
212;DHT22;16228;48.800;9.002;2022-12-28T14:32:27;9.30;96.90
212;DHT22;16228;48.800;9.002;2022-12-28T14:34:58;9.20;96.90
212;DHT22;16228;48.800;9.002;2022-12-28T14:37:29;9.10;96.90
212;DHT22;16228;48.800;9.002;2022-12-28T14:40:00;9.20;96.90
212;DHT22;16228;48.800;9.002;2022-12-28T14:42:29;9.20;96.90
212;DHT22;16228;48.800;9.002;2022-12-28T14:44:56;9.20;96.90
212;DHT22;16228;48.800;9.002;2022-12-28T14:47:35;9.10;96.90
212;DHT22;16228;48.800;9.002;2022-12-28T14:50:13;9.10;96.90
212;DHT22;16228;48.800;9.002;2022-12-28T14:52:44;9.20;96.90
212;DHT22;16228;48.800;9.002;2022-12-28T14:55:25;9.20;96.90
212;DHT22;16228;48.800;9.002;2022-12-28T14:57:54;9.10;96.90
212;DHT22;16228;48.800;9.002;2022-12-28T15:00:26;9.10;96.90
212;DHT22;16228;48.800;9.002;2022-12-28T15:02:55;9.10;96.90
212;DHT22;16228;48.800;9.002;2022-12-28T15:05:38;9.10;96.90
212;DHT22;16228;48.800;9.002;2022-12-28T15:08:08;9.00;96.90
212;DHT22;16228;48.800;9.002;2022-12-28T15:10:39;9.00;96.90
212;DHT22;16228;48.800;9.002;2022-12-28T15:13:07;9.00;96.90
212;DHT22;16228;48.800;9.002;2022-12-28T15:15:34;8.90;96.90
212;DHT22;16228;48.800;9.002;2022-12-28T15:18:02;8.90;96.90
212;DHT22;16228;48.800;9.002;2022-12-28T15:20:29;8.90;96.90
212;DHT22;16228;48.800;9.002;2022-12-28T15:22:56;8.90;96.90
212;DHT22;16228;48.800;9.002;2022-12-28T15:25:25;8.90;96.90
212;DHT22;16228;48.800;9.002;2022-12-28T15:27:52;8.90;96.90
212;DHT22;16228;48.800;9.002;2022-12-28T15:30:20;8.90;96.90
212;DHT22;16228;48.800;9.002;2022-12-28T15:32:47;8.90;96.90
212;DHT22;16228;48.800;9.002;2022-12-28T15:35:15;8.80;96.90
212;DHT22;16228;48.800;9.002;2022-12-28T15:37:42;8.80;96.90
212;DHT22;16228;48.800;9.002;2022-12-28T15:40:10;8.80;96.90
212;DHT22;16228;48.800;9.002;2022-12-28T15:42:38;8.70;96.90
212;DHT22;16228;48.800;9.002;2022-12-28T15:45:06;8.70;96.90
212;DHT22;16228;48.800;9.002;2022-12-28T15:47:35;8.70;96.90
212;DHT22;16228;48.800;9.002;2022-12-28T15:50:03;8.60;96.90
212;DHT22;16228;48.800;9.002;2022-12-28T15:52:31;8.60;96.90
212;DHT22;16228;48.800;9.002;2022-12-28T15:54:58;8.60;96.90
212;DHT22;16228;48.800;9.002;2022-12-28T15:57:25;8.60;96.90
212;DHT22;16228;48.800;9.002;2022-12-28T15:59:54;8.60;96.90
212;DHT22;16228;48.800;9.002;2022-12-28T16:02:22;8.60;96.90
212;DHT22;16228;48.800;9.002;2022-12-28T16:04:49;8.60;96.90
212;DHT22;16228;48.800;9.002;2022-12-28T16:07:16;8.60;96.90
212;DHT22;16228;48.800;9.002;2022-12-28T16:09:44;8.60;96.90
212;DHT22;16228;48.800;9.002;2022-12-28T16:12:12;8.70;96.90
212;DHT22;16228;48.800;9.002;2022-12-28T16:14:43;8.70;96.90
212;DHT22;16228;48.800;9.002;2022-12-28T16:17:13;8.70;96.90
212;DHT22;16228;48.800;9.002;2022-12-28T16:19:40;8.70;96.90
212;DHT22;16228;48.800;9.002;2022-12-28T16:22:07;8.70;96.90
212;DHT22;16228;48.800;9.002;2022-12-28T16:24:35;8.80;96.90
212;DHT22;16228;48.800;9.002;2022-12-28T16:27:02;8.80;96.90
212;DHT22;16228;48.800;9.002;2022-12-28T16:29:29;8.80;96.90
212;DHT22;16228;48.800;9.002;2022-12-28T16:31:58;8.80;96.90
212;DHT22;16228;48.800;9.002;2022-12-28T16:34:27;8.80;96.90
212;DHT22;16228;48.800;9.002;2022-12-28T16:36:57;8.80;96.90
212;DHT22;16228;48.800;9.002;2022-12-28T16:39:25;8.80;96.90
212;DHT22;16228;48.800;9.002;2022-12-28T16:41:54;8.80;96.90
212;DHT22;16228;48.800;9.002;2022-12-28T16:44:23;8.80;96.90
212;DHT22;16228;48.800;9.002;2022-12-28T16:46:51;8.80;96.90
212;DHT22;16228;48.800;9.002;2022-12-28T16:49:21;8.80;96.90
212;DHT22;16228;48.800;9.002;2022-12-28T16:51:49;8.80;96.90
212;DHT22;16228;48.800;9.002;2022-12-28T16:54:18;8.80;96.90
212;DHT22;16228;48.800;9.002;2022-12-28T16:56:46;8.80;96.90
212;DHT22;16228;48.800;9.002;2022-12-28T16:59:15;8.80;96.90
212;DHT22;16228;48.800;9.002;2022-12-28T17:01:43;8.90;96.90
212;DHT22;16228;48.800;9.002;2022-12-28T17:04:11;8.90;96.90